Time;durP1;ratioP1;P1;durP2;ratioP2;P2;SDS_P1;SDS_P2;PMS_P1;PMS_P2;Temp;Humidity;BMP_temperature;BMP_pressure;BME280_temperature;BME280_humidity;BME280_pressure;Samples;Min_cycle;Max_cycle;Signal;HPM_P1;HPM_P2
2023/07/28 00:00:14;;;;;;;1.65;0.47;;;;;;;18.04;100.00;98676.72;7392926;19;20432;-61
2023/07/28 00:02:43;;;;;;;0.57;0.35;;;;;;;18.18;100.00;98674.53;7393282;19;20345;-61
2023/07/28 00:05:09;;;;;;;0.80;0.10;;;;;;;18.36;100.00;98673.50;7393764;19;20025;-61
2023/07/28 00:07:36;;;;;;;1.13;0.40;;;;;;;18.34;100.00;98670.50;7391869;19;20010;-61
2023/07/28 00:10:02;;;;;;;0.47;0.47;;;;;;;18.13;100.00;98670.56;7391661;19;20007;-61
2023/07/28 00:12:28;;;;;;;0.80;0.10;;;;;;;18.03;100.00;98680.09;7394839;19;20015;-61
2023/07/28 00:14:55;;;;;;;1.23;0.30;;;;;;;18.05;100.00;98678.25;7393361;19;20478;-61
2023/07/28 00:17:21;;;;;;;1.05;0.45;;;;;;;17.91;100.00;98682.47;7396209;19;20007;-61
2023/07/28 00:19:47;;;;;;;2.03;0.40;;;;;;;18.05;100.00;98683.13;7393547;19;20018;-61
2023/07/28 00:22:13;;;;;;;0.30;0.30;;;;;;;17.72;100.00;98679.16;7393288;19;20066;-61
2023/07/28 00:24:39;;;;;;;7.95;1.08;;;;;;;17.72;100.00;98673.53;7392920;19;20015;-61
2023/07/28 00:27:06;;;;;;;0.10;0.10;;;;;;;17.75;100.00;98683.69;7392196;19;20021;-61
2023/07/28 00:29:32;;;;;;;0.30;0.20;;;;;;;17.80;100.00;98679.22;7397033;19;20400;-61
2023/07/28 00:31:58;;;;;;;0.15;0.15;;;;;;;17.76;100.00;98678.81;7390908;19;20086;-60
2023/07/28 00:34:24;;;;;;;0.15;0.15;;;;;;;17.80;100.00;98679.22;7391336;19;20051;-61
2023/07/28 00:36:51;;;;;;;0.30;0.30;;;;;;;18.21;100.00;98679.06;7392810;19;20019;-61
2023/07/28 00:39:17;;;;;;;0.38;0.20;;;;;;;18.17;100.00;98675.84;7399901;19;20021;-61
2023/07/28 00:41:43;;;;;;;0.68;0.35;;;;;;;17.72;100.00;98673.53;7400383;19;20049;-61
2023/07/28 00:44:09;;;;;;;4.05;0.50;;;;;;;17.75;100.00;98671.66;7400307;19;20022;-60
2023/07/28 00:46:35;;;;;;;0.13;0.13;;;;;;;17.63;100.00;98676.09;7399383;19;20011;-60
2023/07/28 00:49:03;;;;;;;0.10;0.10;;;;;;;17.67;100.00;98682.88;7402472;19;20007;-61
2023/07/28 00:51:31;;;;;;;0.85;0.20;;;;;;;18.01;100.00;98672.22;7397199;19;20014;-61
2023/07/28 00:53:59;;;;;;;0.10;0.00;;;;;;;18.09;100.00;98673.00;7399908;19;20010;-60
2023/07/28 00:56:25;;;;;;;0.20;0.10;;;;;;;18.66;100.00;98676.47;7400657;19;20032;-60
2023/07/28 00:58:51;;;;;;;0.63;0.63;;;;;;;19.31;100.00;98672.03;7402216;19;20059;-63
2023/07/28 01:01:18;;;;;;;1.00;0.25;;;;;;;18.75;100.00;98669.53;7399533;19;20010;-64
2023/07/28 01:03:44;;;;;;;0.17;0.10;;;;;;;19.17;100.00;98681.22;7401760;19;20034;-64
2023/07/28 01:06:34;;;;;;;0.88;0.35;;;;;;;19.13;100.00;98669.56;7399002;19;20015;-64
2023/07/28 01:09:05;;;;;;;0.27;0.27;;;;;;;19.15;100.00;98673.34;7400987;19;20015;-64
2023/07/28 01:11:32;;;;;;;;;;;;;;;17.78;100.00;98676.94;7398151;19;20252;-64
2023/07/28 01:13:58;;;;;;;5.78;0.80;;;;;;;19.09;100.00;98674.84;7399080;19;20324;-64
2023/07/28 01:16:24;;;;;;;0.15;0.15;;;;;;;18.39;100.00;98671.63;7397408;19;20015;-65
2023/07/28 01:18:51;;;;;;;0.30;0.10;;;;;;;19.00;100.00;98662.03;7397818;19;20467;-65
2023/07/28 01:21:25;;;;;;;0.10;0.10;;;;;;;19.01;100.00;98666.38;7396676;19;20463;-63
2023/07/28 01:24:03;;;;;;;0.10;0.00;;;;;;;19.59;100.00;98666.22;7394263;19;20337;-64
2023/07/28 01:26:34;;;;;;;1.58;0.70;;;;;;;19.70;100.00;98669.97;7393237;19;20036;-64
2023/07/28 01:29:01;;;;;;;7.53;0.25;;;;;;;17.85;100.00;98673.44;7396911;19;20027;-64
2023/07/28 01:31:28;;;;;;;0.75;0.45;;;;;;;17.97;100.00;98671.81;7394912;19;20017;-64
2023/07/28 01:33:54;;;;;;;1.25;0.57;;;;;;;17.48;100.00;98673.16;7397896;19;20014;-64
2023/07/28 01:36:20;;;;;;;0.20;0.20;;;;;;;18.10;100.00;98682.94;7397990;19;20011;-64
2023/07/28 01:38:46;;;;;;;0.38;0.10;;;;;;;17.52;100.00;98679.94;7401216;19;20011;-63
2023/07/28 01:41:12;;;;;;;0.30;0.10;;;;;;;16.94;100.00;98679.59;7398115;19;20015;-63
2023/07/28 01:43:39;;;;;;;0.20;0.10;;;;;;;17.81;100.00;98684.28;7401812;19;20420;-63
2023/07/28 01:46:05;;;;;;;0.10;0.10;;;;;;;16.73;100.00;98681.63;7396133;19;20022;-63
2023/07/28 01:48:31;;;;;;;2.45;0.20;;;;;;;16.77;100.00;98687.69;7397707;19;20018;-63
2023/07/28 01:50:57;;;;;;;1.13;0.10;;;;;;;17.16;100.00;98690.31;7391802;19;20027;-64
2023/07/28 01:53:23;;;;;;;0.68;0.20;;;;;;;16.95;100.00;98687.50;7398492;19;20325;-63
2023/07/28 01:55:49;;;;;;;0.90;0.32;;;;;;;16.77;100.00;98685.63;7398273;19;20010;-63
2023/07/28 01:58:16;;;;;;;0.40;0.20;;;;;;;17.97;100.00;98694.34;7398566;19;20506;-63
2023/07/28 02:00:42;;;;;;;0.20;0.20;;;;;;;17.41;100.00;98688.69;7396893;19;20018;-63
2023/07/28 02:03:08;;;;;;;1.92;0.90;;;;;;;17.55;100.00;98690.13;7396519;19;20039;-63
2023/07/28 02:05:34;;;;;;;0.10;0.00;;;;;;;17.77;100.00;98681.06;7396213;19;20035;-64
2023/07/28 02:08:01;;;;;;;0.73;0.20;;;;;;;17.59;100.00;98687.69;7398537;19;20030;-63
2023/07/28 02:10:29;;;;;;;0.30;0.28;;;;;;;18.04;100.00;98679.53;7394029;19;20014;-63
2023/07/28 02:12:55;;;;;;;0.10;0.10;;;;;;;17.83;100.00;98673.22;7397733;19;20022;-63
2023/07/28 02:15:21;;;;;;;0.32;0.20;;;;;;;18.03;100.00;98669.59;7396808;19;20070;-63
2023/07/28 02:17:47;;;;;;;0.28;0.22;;;;;;;18.84;100.00;98666.91;7398554;19;20074;-63
2023/07/28 02:20:15;;;;;;;1.30;0.50;;;;;;;18.95;100.00;98674.25;7395193;19;20030;-63
2023/07/28 02:22:42;;;;;;;0.40;0.15;;;;;;;19.55;100.00;98665.09;7395501;19;20007;-63
2023/07/28 02:25:09;;;;;;;0.50;0.20;;;;;;;19.74;100.00;98664.69;7395660;19;20006;-63
2023/07/28 02:27:37;;;;;;;0.10;0.10;;;;;;;21.18;100.00;98670.53;7395996;19;20010;-64
2023/07/28 02:30:06;;;;;;;0.20;0.20;;;;;;;18.94;100.00;98669.94;7394632;19;20049;-64
2023/07/28 02:32:32;;;;;;;0.38;0.30;;;;;;;19.31;100.00;98666.41;7396963;19;20665;-64
2023/07/28 02:34:58;;;;;;;0.85;0.40;;;;;;;19.22;100.00;98678.25;7395312;19;20088;-63
2023/07/28 02:37:25;;;;;;;0.82;0.65;;;;;;;18.84;100.00;98669.72;7396930;19;20014;-63
2023/07/28 02:39:51;;;;;;;0.60;0.22;;;;;;;19.86;100.00;98671.47;7396906;19;20015;-63
2023/07/28 02:42:17;;;;;;;0.10;0.10;;;;;;;19.57;100.00;98668.88;7396954;19;20377;-64
2023/07/28 02:44:43;;;;;;;5.97;0.32;;;;;;;19.63;100.00;98669.41;7396461;19;20010;-63
2023/07/28 02:47:09;;;;;;;1.33;0.82;;;;;;;23.03;100.00;98666.03;7394658;19;20019;-63
2023/07/28 02:49:36;;;;;;;0.93;0.32;;;;;;;26.29;90.33;98659.28;7399052;19;20010;-64
2023/07/28 02:52:03;;;;;;;0.65;0.10;;;;;;;21.53;100.00;98672.88;7392757;19;20038;-63
2023/07/28 02:54:29;;;;;;;0.20;0.10;;;;;;;19.67;100.00;98669.78;7397010;19;20022;-63
2023/07/28 02:56:55;;;;;;;0.32;0.32;;;;;;;30.54;84.37;98651.69;7393972;19;20010;-63
2023/07/28 02:59:23;;;;;;;0.10;0.10;;;;;;;19.94;100.00;98661.66;7397440;19;20010;-63
2023/07/28 03:01:51;;;;;;;0.90;0.28;;;;;;;18.03;100.00;98663.97;7393149;19;20014;-63
2023/07/28 03:04:20;;;;;;;0.52;0.25;;;;;;;17.63;100.00;98662.75;7393100;19;20014;-63
2023/07/28 03:07:15;;;;;;;1.75;0.52;;;;;;;16.98;100.00;98663.16;7394590;19;20011;-63
2023/07/28 03:09:43;;;;;;;0.10;0.05;;;;;;;16.90;100.00;98662.31;7394243;19;20033;-62
2023/07/28 03:12:09;;;;;;;0.20;0.10;;;;;;;16.99;100.00;98664.66;7392787;19;20022;-63
2023/07/28 03:14:35;;;;;;;0.20;0.20;;;;;;;16.98;100.00;98674.41;7393357;19;20034;-63
2023/07/28 03:17:02;;;;;;;0.50;0.20;;;;;;;17.06;100.00;98678.03;7395819;19;20074;-63
2023/07/28 03:19:28;;;;;;;0.65;0.17;;;;;;;17.09;100.00;98679.75;7397409;19;20381;-63
2023/07/28 03:21:54;;;;;;;0.45;0.20;;;;;;;17.40;100.00;98687.16;7393740;19;20022;-63
2023/07/28 03:24:20;;;;;;;0.10;0.00;;;;;;;20.30;100.00;98675.50;7394410;19;20066;-63
2023/07/28 03:26:46;;;;;;;0.80;0.28;;;;;;;20.70;100.00;98673.44;7393912;19;20015;-63
2023/07/28 03:29:12;;;;;;;0.10;0.10;;;;;;;20.40;100.00;98670.72;7397285;19;20018;-63
2023/07/28 03:31:38;;;;;;;0.20;0.20;;;;;;;20.82;100.00;98680.16;7391346;19;20015;-63
2023/07/28 03:34:05;;;;;;;1.20;0.52;;;;;;;22.14;100.00;98673.03;7393704;19;20022;-63
2023/07/28 03:36:32;;;;;;;0.93;0.20;;;;;;;22.51;100.00;98671.09;7394759;19;20017;-63
2023/07/28 03:38:59;;;;;;;0.57;0.30;;;;;;;20.71;100.00;98666.44;7396333;19;20003;-63
2023/07/28 03:41:25;;;;;;;0.30;0.30;;;;;;;21.14;100.00;98666.00;7393336;19;20011;-63
2023/07/28 03:43:51;;;;;;;0.20;0.20;;;;;;;25.02;90.83;98664.03;7398371;19;20070;-63
2023/07/28 03:46:17;;;;;;;0.20;0.20;;;;;;;18.72;100.00;98685.50;7392959;19;20014;-64
2023/07/28 03:48:43;;;;;;;0.30;0.20;;;;;;;17.72;100.00;98673.53;7395471;19;20019;-64
2023/07/28 03:51:09;;;;;;;0.43;0.38;;;;;;;17.30;100.00;98669.25;7391918;19;20010;-63
2023/07/28 03:53:36;;;;;;;0.75;0.30;;;;;;;17.29;100.00;98670.53;7393538;19;20031;-63
2023/07/28 03:56:03;;;;;;;1.20;0.20;;;;;;;18.14;100.00;98669.28;7393773;19;20020;-63
2023/07/28 03:58:29;;;;;;;0.20;0.20;;;;;;;17.31;100.00;98673.56;7394463;19;20017;-63
2023/07/28 04:00:55;;;;;;;0.17;0.10;;;;;;;17.18;100.00;98673.63;7392803;19;20019;-63
2023/07/28 04:03:22;;;;;;;0.82;0.15;;;;;;;17.24;100.00;98674.25;7392864;19;20022;-63
2023/07/28 04:05:48;;;;;;;0.30;0.17;;;;;;;17.27;100.00;98673.16;7392434;19;20017;-63
2023/07/28 04:08:14;;;;;;;4.38;1.02;;;;;;;17.30;100.00;98691.78;7395585;19;20514;-63
2023/07/28 04:10:40;;;;;;;2.28;0.38;;;;;;;17.35;100.00;98699.28;7391734;19;20357;-63
2023/07/28 04:13:06;;;;;;;1.05;0.30;;;;;;;17.47;100.00;98689.28;7394611;19;20066;-63
2023/07/28 04:15:32;;;;;;;0.35;0.30;;;;;;;17.52;100.00;98690.47;7393034;19;20026;-63
2023/07/28 04:17:58;;;;;;;1.00;0.30;;;;;;;17.54;100.00;98697.06;7394023;19;20007;-63
2023/07/28 04:20:24;;;;;;;0.10;0.10;;;;;;;17.48;100.00;98682.34;7392834;19;20321;-63
2023/07/28 04:22:51;;;;;;;0.90;0.38;;;;;;;17.45;100.00;98684.19;7391105;19;20395;-64
2023/07/28 04:25:17;;;;;;;0.43;0.20;;;;;;;17.36;100.00;98687.50;7390607;19;20397;-63
2023/07/28 04:27:46;;;;;;;0.85;0.45;;;;;;;17.40;100.00;98690.72;7391697;19;20018;-63
2023/07/28 04:30:12;;;;;;;0.65;0.10;;;;;;;17.62;100.00;98686.59;7391351;19;20486;-63
2023/07/28 04:32:38;;;;;;;0.50;0.20;;;;;;;17.48;100.00;98687.97;7391158;19;20519;-63
2023/07/28 04:35:12;;;;;;;0.20;0.20;;;;;;;32.77;77.00;98676.22;7391114;19;20011;-63
2023/07/28 04:37:57;;;;;;;1.00;0.40;;;;;;;22.19;100.00;98686.22;7393018;19;20018;-63
2023/07/28 04:40:33;;;;;;;1.25;0.20;;;;;;;19.61;100.00;98689.00;7391116;19;20494;-63
2023/07/28 04:42:59;;;;;;;1.33;0.30;;;;;;;19.53;100.00;98685.41;7393557;19;20011;-63
2023/07/28 04:45:26;;;;;;;0.43;0.20;;;;;;;19.23;100.00;98695.94;7391399;19;20014;-64
2023/07/28 04:47:52;;;;;;;1.23;0.38;;;;;;;19.25;100.00;98685.56;7392624;19;20018;-63
2023/07/28 04:50:19;;;;;;;2.30;0.40;;;;;;;19.16;100.00;98691.78;7389520;19;20014;-63
2023/07/28 04:53:03;;;;;;;1.50;0.40;;;;;;;19.06;100.00;98688.00;7391182;19;20010;-63
2023/07/28 04:55:51;;;;;;;0.25;0.22;;;;;;;19.72;100.00;98689.94;7390740;19;20013;-63
2023/07/28 04:58:17;;;;;;;0.82;0.40;;;;;;;19.98;100.00;98689.50;7394459;19;20014;-63
2023/07/28 05:00:48;;;;;;;3.28;0.82;;;;;;;19.99;100.00;98685.38;7390342;19;20036;-63
2023/07/28 05:03:15;;;;;;;0.22;0.13;;;;;;;19.95;100.00;98673.69;7393835;19;20007;-63
2023/07/28 05:05:48;;;;;;;1.02;0.55;;;;;;;19.98;100.00;98678.19;7391172;19;20021;-63
2023/07/28 05:08:14;;;;;;;0.75;0.25;;;;;;;20.11;100.00;98680.81;7392074;19;20014;-63
2023/07/28 05:10:41;;;;;;;1.70;0.52;;;;;;;20.27;100.00;98690.78;7389293;19;20070;-63
2023/07/28 05:13:08;;;;;;;2.38;0.52;;;;;;;20.08;100.00;98696.81;7392647;19;20022;-63
2023/07/28 05:15:34;;;;;;;0.10;0.00;;;;;;;20.24;100.00;98694.75;7389496;19;20018;-63
2023/07/28 05:18:01;;;;;;;0.47;0.47;;;;;;;20.12;100.00;98687.97;7388609;19;20034;-63
2023/07/28 05:20:36;;;;;;;1.77;0.40;;;;;;;20.07;100.00;98694.56;7391247;19;20014;-63
2023/07/28 05:23:09;;;;;;;1.70;0.63;;;;;;;26.91;100.00;98688.34;7390479;19;20018;-63
2023/07/28 05:25:35;;;;;;;0.30;0.10;;;;;;;21.83;100.00;98700.19;7391599;19;20007;-64
2023/07/28 05:28:01;;;;;;;0.52;0.10;;;;;;;20.73;100.00;98691.31;7397759;19;20340;-64
2023/07/28 05:30:29;;;;;;;0.85;0.28;;;;;;;23.46;100.00;98690.03;7394747;19;20347;-64
2023/07/28 05:32:55;;;;;;;1.48;0.32;;;;;;;21.43;100.00;98696.75;7400989;19;20014;-64
2023/07/28 05:35:41;;;;;;;0.98;0.47;;;;;;;20.05;100.00;98694.41;7399050;19;20014;-65
2023/07/28 05:38:07;;;;;;;3.45;1.10;;;;;;;24.93;100.00;98687.59;7397757;19;20007;-64
2023/07/28 05:40:34;;;;;;;1.50;0.43;;;;;;;25.56;100.00;98676.44;7398410;19;20466;-64
2023/07/28 05:43:00;;;;;;;0.80;0.35;;;;;;;21.20;100.00;98690.50;7400128;19;20092;-64
2023/07/28 05:45:26;;;;;;;2.75;0.32;;;;;;;20.94;100.00;98686.84;7400535;19;20036;-65
2023/07/28 05:47:52;;;;;;;1.02;0.10;;;;;;;20.76;100.00;98687.34;7395632;19;20070;-65
2023/07/28 05:50:18;;;;;;;0.90;0.30;;;;;;;20.34;100.00;98687.16;7396010;19;20040;-65
2023/07/28 05:52:45;;;;;;;2.85;0.70;;;;;;;21.72;100.00;98689.34;7398305;19;20003;-64
2023/07/28 05:55:11;;;;;;;6.03;0.40;;;;;;;27.18;100.00;98692.88;7396704;19;20070;-64
2023/07/28 05:57:38;;;;;;;1.52;0.55;;;;;;;24.91;100.00;98690.31;7400497;19;20045;-59
2023/07/28 06:00:09;;;;;;;0.30;0.20;;;;;;;21.67;100.00;98698.81;7396475;19;20014;-59
2023/07/28 06:02:39;;;;;;;0.98;0.10;;;;;;;21.35;100.00;98702.50;7397170;19;20028;-59
2023/07/28 06:05:08;;;;;;;2.60;0.60;;;;;;;20.92;100.00;98700.84;7395302;19;20336;-60
2023/07/28 06:07:34;;;;;;;2.17;0.22;;;;;;;21.34;100.00;98697.38;7399662;19;20035;-60
2023/07/28 06:10:00;;;;;;;1.67;0.10;;;;;;;21.90;100.00;98705.03;7395325;19;20010;-60
2023/07/28 06:12:26;;;;;;;0.75;0.43;;;;;;;21.40;100.00;98695.06;7397241;19;20019;-60
2023/07/28 06:14:52;;;;;;;2.80;0.70;;;;;;;21.79;100.00;98697.00;7396746;19;20041;-60
2023/07/28 06:17:19;;;;;;;2.00;1.08;;;;;;;21.73;100.00;98699.31;7399281;19;20467;-59
2023/07/28 06:19:45;;;;;;;3.03;0.90;;;;;;;22.57;100.00;98695.03;7397387;19;20015;-60
2023/07/28 06:22:11;;;;;;;1.60;0.38;;;;;;;22.28;100.00;98684.81;7395719;19;20339;-60
2023/07/28 06:24:42;;;;;;;0.25;0.00;;;;;;;25.26;100.00;98688.56;7395641;19;20009;-59
2023/07/28 06:27:08;;;;;;;0.38;0.38;;;;;;;26.73;100.00;98675.00;7397606;19;20463;-60
2023/07/28 06:29:37;;;;;;;0.40;0.30;;;;;;;25.43;100.00;98682.66;7396273;19;20015;-59
2023/07/28 06:32:03;;;;;;;4.18;0.50;;;;;;;23.75;100.00;98685.94;7394636;19;20011;-60
2023/07/28 06:34:30;;;;;;;1.25;0.28;;;;;;;24.54;100.00;98684.06;7397882;19;20021;-59
2023/07/28 06:36:56;;;;;;;0.80;0.35;;;;;;;26.78;100.00;98680.38;7396195;19;20439;-60
2023/07/28 06:39:22;;;;;;;0.57;0.30;;;;;;;24.98;100.00;98680.09;7395328;19;20378;-59
2023/07/28 06:41:48;;;;;;;2.58;0.40;;;;;;;24.36;100.00;98690.50;7397247;19;20475;-59
2023/07/28 06:44:15;;;;;;;0.40;0.20;;;;;;;24.65;100.00;98685.53;7399046;19;20385;-60
2023/07/28 06:46:41;;;;;;;0.40;0.10;;;;;;;24.34;100.00;98681.81;7395261;19;20042;-59
2023/07/28 06:49:07;;;;;;;0.20;0.20;;;;;;;24.16;100.00;98678.38;7399355;19;20031;-60
2023/07/28 06:51:34;;;;;;;0.73;0.05;;;;;;;23.51;100.00;98691.84;7392435;19;20452;-60
2023/07/28 06:54:00;;;;;;;0.30;0.22;;;;;;;27.54;100.00;98684.47;7397038;19;20034;-60
2023/07/28 06:56:26;;;;;;;0.32;0.20;;;;;;;35.03;88.51;98672.88;7394741;19;20323;-60
2023/07/28 06:58:53;;;;;;;0.90;0.40;;;;;;;30.09;92.33;98688.94;7399901;19;20010;-59
2023/07/28 07:01:19;;;;;;;0.22;0.20;;;;;;;24.07;100.00;98699.78;7395695;19;20036;-59
2023/07/28 07:03:45;;;;;;;0.30;0.20;;;;;;;22.87;100.00;98698.84;7394806;19;20017;-59
2023/07/28 07:06:11;;;;;;;0.00;0.00;;;;;;;22.64;100.00;98690.63;7393983;19;20050;-59
2023/07/28 07:08:38;;;;;;;2.75;0.45;;;;;;;22.58;100.00;98696.53;7399108;19;20369;-60
2023/07/28 07:11:05;;;;;;;0.10;0.10;;;;;;;22.72;100.00;98691.28;7394035;19;20010;-65
2023/07/28 07:13:31;;;;;;;0.30;0.10;;;;;;;23.05;100.00;98694.59;7396863;19;20361;-66
2023/07/28 07:15:58;;;;;;;0.85;0.20;;;;;;;23.07;100.00;98703.28;7395264;19;20010;-66
2023/07/28 07:18:24;;;;;;;0.55;0.08;;;;;;;23.14;100.00;98702.44;7398006;19;20031;-66
2023/07/28 07:20:50;;;;;;;0.43;0.15;;;;;;;23.28;100.00;98709.97;7395270;19;20010;-66
2023/07/28 07:23:16;;;;;;;0.05;0.03;;;;;;;23.18;100.00;98711.25;7394413;19;20459;-66
2023/07/28 07:25:42;;;;;;;0.10;0.08;;;;;;;23.10;100.00;98710.63;7394806;19;20022;-66
2023/07/28 07:28:08;;;;;;;0.55;0.10;;;;;;;23.13;100.00;98715.88;7395049;19;20045;-66
2023/07/28 07:30:34;;;;;;;0.65;0.10;;;;;;;23.02;100.00;98718.53;7392144;19;20026;-66
2023/07/28 07:33:01;;;;;;;0.15;0.03;;;;;;;22.98;100.00;98718.94;7389642;19;20345;-66
2023/07/28 07:35:27;;;;;;;0.98;0.10;;;;;;;23.05;100.00;98711.63;7393572;19;20515;-66
2023/07/28 07:37:53;;;;;;;0.45;0.20;;;;;;;23.21;100.00;98712.94;7395660;19;20018;-66
2023/07/28 07:40:19;;;;;;;0.20;0.10;;;;;;;23.54;100.00;98716.25;7395390;19;20014;-66
2023/07/28 07:42:48;;;;;;;0.10;0.00;;;;;;;23.71;100.00;98713.31;7396311;19;20037;-67
2023/07/28 07:45:15;;;;;;;0.43;0.10;;;;;;;23.76;100.00;98715.84;7392143;19;20025;-67
2023/07/28 07:47:42;;;;;;;0.47;0.30;;;;;;;23.49;100.00;98712.34;7392583;19;20014;-69
2023/07/28 07:50:10;;;;;;;0.00;0.00;;;;;;;23.23;100.00;98711.00;7393658;19;20014;-67
2023/07/28 07:52:38;;;;;;;1.13;0.30;;;;;;;23.28;100.00;98712.81;7394062;19;20025;-64
2023/07/28 07:55:04;;;;;;;0.17;0.10;;;;;;;23.03;100.00;98714.31;7393023;19;20002;-67
2023/07/28 07:57:30;;;;;;;3.50;0.17;;;;;;;23.71;100.00;98716.91;7394178;19;20018;-67
2023/07/28 07:59:59;;;;;;;1.73;0.95;;;;;;;23.06;100.00;98713.16;7393013;19;20452;-68
2023/07/28 08:02:25;;;;;;;0.70;0.17;;;;;;;22.79;100.00;98712.38;7392023;19;20014;-67
2023/07/28 08:04:55;;;;;;;0.20;0.10;;;;;;;22.87;100.00;98716.63;7393457;19;20018;-69
2023/07/28 08:07:23;;;;;;;0.00;0.00;;;;;;;22.91;100.00;98716.97;7392457;19;20003;-69
2023/07/28 08:09:50;;;;;;;0.47;0.10;;;;;;;22.91;100.00;98724.72;7394097;19;20018;-69
2023/07/28 08:12:16;;;;;;;0.20;0.00;;;;;;;23.00;100.00;98716.25;7391872;19;20475;-70
2023/07/28 08:14:42;;;;;;;0.30;0.10;;;;;;;22.97;100.00;98728.03;7392934;19;20605;-69
2023/07/28 08:17:09;;;;;;;0.05;0.00;;;;;;;22.94;100.00;98729.22;7396369;19;20026;-70
2023/07/28 08:19:35;;;;;;;0.30;0.10;;;;;;;23.00;100.00;98727.59;7393557;19;20526;-70
2023/07/28 08:22:04;;;;;;;2.05;0.40;;;;;;;23.18;100.00;98736.81;7390945;19;20011;-69
2023/07/28 08:24:31;;;;;;;0.20;0.00;;;;;;;23.95;100.00;98735.81;7392121;19;20010;-69
2023/07/28 08:26:57;;;;;;;0.77;0.10;;;;;;;23.56;100.00;98737.06;7392355;19;20035;-69
2023/07/28 08:29:24;;;;;;;0.30;0.10;;;;;;;23.51;100.00;98735.22;7392015;19;20013;-68
2023/07/28 08:31:51;;;;;;;2.35;0.45;;;;;;;23.48;100.00;98735.66;7391867;19;20347;-69
2023/07/28 08:34:17;;;;;;;0.00;0.00;;;;;;;22.67;100.00;98731.28;7393605;19;20034;-68
2023/07/28 08:36:43;;;;;;;0.63;0.30;;;;;;;22.75;100.00;98734.75;7391935;19;20010;-71
2023/07/28 08:39:09;;;;;;;2.38;0.28;;;;;;;22.73;100.00;98728.94;7396549;19;20014;-69
2023/07/28 08:41:36;;;;;;;1.35;0.10;;;;;;;35.29;71.98;98705.53;7392294;19;20455;-69
2023/07/28 08:44:02;;;;;;;0.55;0.13;;;;;;;26.22;100.00;98723.06;7397411;19;20007;-70
2023/07/28 08:46:29;;;;;;;2.45;0.13;;;;;;;24.85;100.00;98729.75;7392265;19;20011;-69
2023/07/28 08:48:55;;;;;;;0.10;0.00;;;;;;;24.40;100.00;98730.66;7396500;19;20368;-68
2023/07/28 08:51:24;;;;;;;0.93;0.10;;;;;;;24.57;100.00;98727.66;7392091;19;20025;-69
2023/07/28 08:53:51;;;;;;;1.33;0.25;;;;;;;24.40;100.00;98724.97;7393233;19;20475;-69
2023/07/28 08:56:18;;;;;;;0.10;0.00;;;;;;;24.26;100.00;98721.03;7392752;19;20023;-69
2023/07/28 08:58:45;;;;;;;2.47;0.20;;;;;;;23.74;100.00;98732.75;7395607;19;20351;-69
2023/07/28 09:01:11;;;;;;;0.20;0.10;;;;;;;39.36;64.17;98709.78;7399753;19;20017;-68
2023/07/28 09:03:42;;;;;;;5.47;0.10;;;;;;;32.64;72.63;98720.38;7400199;19;20014;-69
2023/07/28 09:06:11;;;;;;;0.03;0.03;;;;;;;26.00;100.00;98726.47;7400361;19;20459;-69
2023/07/28 09:08:37;;;;;;;0.43;0.20;;;;;;;24.34;100.00;98728.13;7398402;19;21435;-68
2023/07/28 09:11:05;;;;;;;0.13;0.00;;;;;;;33.24;92.23;98710.56;7398226;19;20007;-69
2023/07/28 09:13:41;;;;;;;0.90;0.20;;;;;;;30.63;85.42;98716.81;7402274;19;20467;-67
2023/07/28 09:16:21;;;;;;;0.10;0.00;;;;;;;35.71;65.43;98709.69;7401196;19;20486;-68
2023/07/28 09:18:47;;;;;;;;;;;;;;;36.42;59.84;98708.78;7401776;19;20039;-68
2023/07/28 09:21:19;;;;;;;0.10;0.00;;;;;;;36.63;58.72;98716.59;7399498;19;19974;-67
2023/07/28 09:23:45;;;;;;;0.20;0.20;;;;;;;35.45;57.55;98716.88;7399069;19;20487;-69
2023/07/28 09:26:11;;;;;;;2.50;0.25;;;;;;;32.35;73.22;98714.81;7400029;19;20077;-67
2023/07/28 09:28:39;;;;;;;0.40;0.10;;;;;;;30.56;76.04;98720.78;7402338;19;20010;-69
2023/07/28 09:31:05;;;;;;;0.00;0.00;;;;;;;29.50;84.18;98715.94;7398192;19;20014;-67
2023/07/28 09:33:33;;;;;;;0.10;0.00;;;;;;;26.17;100.00;98720.53;7399213;19;20035;-70
2023/07/28 09:36:10;;;;;;;0.10;0.00;;;;;;;29.99;88.46;98709.25;7397400;19;20014;-68
2023/07/28 09:38:41;;;;;;;0.10;0.10;;;;;;;30.91;82.58;98714.59;7401875;19;20023;-67
2023/07/28 09:41:10;;;;;;;0.20;0.10;;;;;;;31.99;77.68;98716.09;7399309;19;20062;-70
2023/07/28 09:43:40;;;;;;;0.10;0.00;;;;;;;30.45;77.13;98725.28;7402481;19;20010;-68
2023/07/28 09:46:08;;;;;;;;;;;;;;;28.03;89.71;98730.34;7399267;19;20010;-68
2023/07/28 09:48:34;;;;;;;0.20;0.20;;;;;;;25.92;100.00;98728.78;7401316;19;19923;-67
2023/07/28 09:51:09;;;;;;;0.10;0.10;;;;;;;25.94;100.00;98731.78;7396211;19;20419;-63
2023/07/28 09:53:40;;;;;;;0.40;0.38;;;;;;;36.84;64.94;98715.66;7397717;19;20010;-64
2023/07/28 09:56:08;;;;;;;0.63;0.20;;;;;;;37.61;61.40;98720.38;7397732;19;20487;-64
2023/07/28 09:58:41;;;;;;;0.25;0.10;;;;;;;28.30;90.25;98734.19;7400644;19;20079;-63
2023/07/28 10:01:09;;;;;;;0.30;0.17;;;;;;;29.20;84.02;98735.06;7397258;19;20022;-64
2023/07/28 10:03:37;;;;;;;1.40;0.20;;;;;;;27.16;94.60;98735.63;7398358;19;20024;-61
2023/07/28 10:06:03;;;;;;;0.32;0.10;;;;;;;36.50;63.44;98726.41;7397717;19;20034;-64
2023/07/28 10:08:30;;;;;;;1.60;0.13;;;;;;;34.81;60.36;98727.84;7400984;19;20074;-65
2023/07/28 10:10:56;;;;;;;0.30;0.10;;;;;;;41.21;48.05;98716.13;7395267;19;20014;-64
2023/07/28 10:13:22;;;;;;;0.63;0.20;;;;;;;29.82;77.71;98723.41;7399303;19;20006;-64
2023/07/28 10:15:50;;;;;;;0.08;0.00;;;;;;;27.22;96.05;98733.91;7392835;19;20010;-64
2023/07/28 10:18:19;;;;;;;0.70;0.00;;;;;;;26.15;100.00;98728.97;7393874;19;20133;-63
2023/07/28 10:20:49;;;;;;;0.03;0.03;;;;;;;25.61;100.00;98733.75;7392873;19;20070;-62
2023/07/28 10:23:19;;;;;;;0.55;0.20;;;;;;;25.44;100.00;98729.78;7393789;19;20017;-63
2023/07/28 10:25:46;;;;;;;0.10;0.00;;;;;;;25.40;100.00;98731.56;7393963;19;20060;-63
2023/07/28 10:28:41;;;;;;;1.02;0.20;;;;;;;25.61;100.00;98731.66;7395251;19;20022;-62
2023/07/28 10:31:10;;;;;;;0.10;0.00;;;;;;;25.82;100.00;98730.94;7392706;19;20147;-63
2023/07/28 10:33:41;;;;;;;0.50;0.10;;;;;;;25.98;100.00;98726.34;7396308;19;20022;-63
2023/07/28 10:36:13;;;;;;;;;;;;;;;25.67;100.00;98725.59;7397095;19;20014;-62
2023/07/28 10:38:40;;;;;;;0.25;0.10;;;;;;;26.06;100.00;98721.19;7399750;19;19918;-63
2023/07/28 10:41:18;;;;;;;0.47;0.10;;;;;;;25.87;100.00;98713.50;7396787;19;20015;-62
2023/07/28 10:43:46;;;;;;;0.40;0.20;;;;;;;26.04;100.00;98706.78;7400393;19;20066;-62
2023/07/28 10:46:16;;;;;;;0.10;0.00;;;;;;;26.28;100.00;98708.44;7396731;19;20015;-63
2023/07/28 10:48:45;;;;;;;0.55;0.20;;;;;;;25.96;100.00;98711.94;7399455;19;20030;-62
2023/07/28 10:51:12;;;;;;;1.08;0.20;;;;;;;25.85;100.00;98709.75;7395479;19;20022;-62
2023/07/28 10:53:38;;;;;;;0.20;0.10;;;;;;;25.92;100.00;98697.41;7394655;19;20011;-62
2023/07/28 10:56:07;;;;;;;0.20;0.10;;;;;;;27.40;100.00;98703.59;7396366;19;20010;-62
2023/07/28 10:58:35;;;;;;;0.15;0.10;;;;;;;26.48;100.00;98697.63;7399143;19;20019;-66
2023/07/28 11:01:01;;;;;;;0.25;0.10;;;;;;;27.64;100.00;98692.91;7396062;19;20022;-63
2023/07/28 11:03:28;;;;;;;1.65;0.10;;;;;;;28.78;92.47;98687.56;7393825;19;20337;-62
2023/07/28 11:05:56;;;;;;;1.85;0.17;;;;;;;27.14;99.06;98692.63;7395359;19;20447;-62
2023/07/28 11:08:23;;;;;;;0.13;0.10;;;;;;;25.48;100.00;98687.28;7398838;19;20084;-62
2023/07/28 11:10:49;;;;;;;0.10;0.10;;;;;;;30.69;84.76;98679.75;7395022;19;20428;-62
2023/07/28 11:13:15;;;;;;;4.68;0.57;;;;;;;26.06;100.00;98686.94;7398369;19;20017;-62
2023/07/28 11:15:42;;;;;;;0.25;0.15;;;;;;;34.42;81.70;98673.00;7395759;19;20620;-62
2023/07/28 11:18:09;;;;;;;0.80;0.10;;;;;;;31.91;63.87;98676.13;7396865;19;20017;-63
2023/07/28 11:20:35;;;;;;;0.77;0.00;;;;;;;28.08;87.33;98689.91;7394670;19;20110;-62
2023/07/28 11:23:03;;;;;;;0.95;0.00;;;;;;;28.44;85.85;98691.28;7394874;19;20042;-61
2023/07/28 11:25:33;;;;;;;1.85;0.10;;;;;;;27.82;90.26;98682.59;7393608;19;20085;-61
2023/07/28 11:28:05;;;;;;;0.10;0.00;;;;;;;27.46;90.55;98683.25;7395842;19;20021;-62